sensor_id;sensor_type;location;lat;lon;timestamp;temperature;humidity
20174;DHT22;10246;50.620;7.232;2022-11-20T00:01:12;4.50;5.30
20174;DHT22;10246;50.620;7.232;2022-11-20T00:03:39;4.50;4.60
20174;DHT22;10246;50.620;7.232;2022-11-20T00:06:08;4.50;4.50
20174;DHT22;10246;50.620;7.232;2022-11-20T00:08:35;4.50;4.50
20174;DHT22;10246;50.620;7.232;2022-11-20T00:11:04;4.60;5.40
20174;DHT22;10246;50.620;7.232;2022-11-20T00:13:32;4.50;4.50
20174;DHT22;10246;50.620;7.232;2022-11-20T00:15:59;4.50;4.20
20174;DHT22;10246;50.620;7.232;2022-11-20T00:18:27;4.40;4.30
20174;DHT22;10246;50.620;7.232;2022-11-20T00:21:00;4.40;4.30
20174;DHT22;10246;50.620;7.232;2022-11-20T00:23:27;4.50;4.90
20174;DHT22;10246;50.620;7.232;2022-11-20T00:25:54;4.40;4.90
20174;DHT22;10246;50.620;7.232;2022-11-20T00:28:22;4.50;5.20
20174;DHT22;10246;50.620;7.232;2022-11-20T00:30:49;4.50;4.80
20174;DHT22;10246;50.620;7.232;2022-11-20T00:33:15;4.50;4.70
20174;DHT22;10246;50.620;7.232;2022-11-20T00:35:42;4.50;4.60
20174;DHT22;10246;50.620;7.232;2022-11-20T00:38:09;4.50;4.80
20174;DHT22;10246;50.620;7.232;2022-11-20T00:40:36;4.50;3.80
20174;DHT22;10246;50.620;7.232;2022-11-20T00:43:02;4.50;3.80
20174;DHT22;10246;50.620;7.232;2022-11-20T00:45:30;4.50;4.90
20174;DHT22;10246;50.620;7.232;2022-11-20T00:47:57;4.50;4.50
20174;DHT22;10246;50.620;7.232;2022-11-20T00:50:24;4.50;4.50
20174;DHT22;10246;50.620;7.232;2022-11-20T00:52:51;4.50;4.10
20174;DHT22;10246;50.620;7.232;2022-11-20T00:55:17;4.50;4.10
20174;DHT22;10246;50.620;7.232;2022-11-20T00:57:44;4.40;4.60
20174;DHT22;10246;50.620;7.232;2022-11-20T01:00:11;4.30;4.60
20174;DHT22;10246;50.620;7.232;2022-11-20T01:02:39;4.40;5.60
20174;DHT22;10246;50.620;7.232;2022-11-20T01:05:06;4.50;5.30
20174;DHT22;10246;50.620;7.232;2022-11-20T01:07:33;4.50;5.50
20174;DHT22;10246;50.620;7.232;2022-11-20T01:10:00;4.50;4.90
20174;DHT22;10246;50.620;7.232;2022-11-20T01:12:27;4.50;5.20
20174;DHT22;10246;50.620;7.232;2022-11-20T01:14:53;4.50;5.50
20174;DHT22;10246;50.620;7.232;2022-11-20T01:17:20;4.50;4.90
20174;DHT22;10246;50.620;7.232;2022-11-20T01:19:49;4.50;4.50
20174;DHT22;10246;50.620;7.232;2022-11-20T01:22:16;4.50;5.00
20174;DHT22;10246;50.620;7.232;2022-11-20T01:24:43;4.40;5.00
20174;DHT22;10246;50.620;7.232;2022-11-20T01:27:10;4.50;5.70
20174;DHT22;10246;50.620;7.232;2022-11-20T01:29:37;4.50;5.40
20174;DHT22;10246;50.620;7.232;2022-11-20T01:32:04;4.50;5.90
20174;DHT22;10246;50.620;7.232;2022-11-20T01:34:31;4.50;5.90
20174;DHT22;10246;50.620;7.232;2022-11-20T01:36:59;4.60;5.90
20174;DHT22;10246;50.620;7.232;2022-11-20T01:39:26;4.60;5.60
20174;DHT22;10246;50.620;7.232;2022-11-20T01:41:54;4.60;5.40
20174;DHT22;10246;50.620;7.232;2022-11-20T01:44:58;4.60;5.50
20174;DHT22;10246;50.620;7.232;2022-11-20T01:47:29;4.50;5.70
20174;DHT22;10246;50.620;7.232;2022-11-20T01:50:01;4.50;5.60
20174;DHT22;10246;50.620;7.232;2022-11-20T01:52:35;4.40;6.10
20174;DHT22;10246;50.620;7.232;2022-11-20T01:55:05;4.40;6.20
20174;DHT22;10246;50.620;7.232;2022-11-20T01:57:34;4.40;6.10
20174;DHT22;10246;50.620;7.232;2022-11-20T02:00:06;4.40;6.30
20174;DHT22;10246;50.620;7.232;2022-11-20T02:02:34;4.40;6.40
20174;DHT22;10246;50.620;7.232;2022-11-20T02:05:09;4.40;6.80
20174;DHT22;10246;50.620;7.232;2022-11-20T02:07:40;4.30;7.10
20174;DHT22;10246;50.620;7.232;2022-11-20T02:10:07;4.30;7.30
20174;DHT22;10246;50.620;7.232;2022-11-20T02:12:34;4.30;7.30
20174;DHT22;10246;50.620;7.232;2022-11-20T02:15:18;4.40;7.50
20174;DHT22;10246;50.620;7.232;2022-11-20T02:17:45;4.40;7.60
20174;DHT22;10246;50.620;7.232;2022-11-20T02:20:12;4.40;8.30
20174;DHT22;10246;50.620;7.232;2022-11-20T02:22:47;4.30;8.70
20174;DHT22;10246;50.620;7.232;2022-11-20T02:25:17;4.30;9.60
20174;DHT22;10246;50.620;7.232;2022-11-20T02:27:45;4.40;9.60
20174;DHT22;10246;50.620;7.232;2022-11-20T02:30:12;4.40;9.60
20174;DHT22;10246;50.620;7.232;2022-11-20T02:32:39;4.40;9.60
20174;DHT22;10246;50.620;7.232;2022-11-20T02:35:08;4.40;9.70
20174;DHT22;10246;50.620;7.232;2022-11-20T02:37:38;4.40;9.70
20174;DHT22;10246;50.620;7.232;2022-11-20T02:40:07;4.40;9.60
20174;DHT22;10246;50.620;7.232;2022-11-20T02:42:36;4.40;9.70
20174;DHT22;10246;50.620;7.232;2022-11-20T02:45:03;4.50;9.70
20174;DHT22;10246;50.620;7.232;2022-11-20T02:47:30;4.50;9.40
20174;DHT22;10246;50.620;7.232;2022-11-20T02:49:57;4.50;9.20
20174;DHT22;10246;50.620;7.232;2022-11-20T02:52:24;4.50;8.90
20174;DHT22;10246;50.620;7.232;2022-11-20T02:54:51;4.50;8.80
20174;DHT22;10246;50.620;7.232;2022-11-20T02:57:18;4.50;9.00
20174;DHT22;10246;50.620;7.232;2022-11-20T02:59:46;4.50;8.80
20174;DHT22;10246;50.620;7.232;2022-11-20T03:02:13;4.60;8.50
20174;DHT22;10246;50.620;7.232;2022-11-20T03:04:40;4.60;8.90
20174;DHT22;10246;50.620;7.232;2022-11-20T03:07:07;4.60;8.50
20174;DHT22;10246;50.620;7.232;2022-11-20T03:09:35;4.60;8.00
20174;DHT22;10246;50.620;7.232;2022-11-20T03:12:02;4.60;8.30
20174;DHT22;10246;50.620;7.232;2022-11-20T03:14:28;4.60;8.80
20174;DHT22;10246;50.620;7.232;2022-11-20T03:16:56;4.60;8.40
20174;DHT22;10246;50.620;7.232;2022-11-20T03:19:23;4.60;8.20
20174;DHT22;10246;50.620;7.232;2022-11-20T03:21:50;4.60;8.20
20174;DHT22;10246;50.620;7.232;2022-11-20T03:24:17;4.60;7.70
20174;DHT22;10246;50.620;7.232;2022-11-20T03:26:44;4.60;7.80
20174;DHT22;10246;50.620;7.232;2022-11-20T03:29:11;4.60;8.20
20174;DHT22;10246;50.620;7.232;2022-11-20T03:31:39;4.60;8.60
20174;DHT22;10246;50.620;7.232;2022-11-20T03:34:09;4.60;9.10
20174;DHT22;10246;50.620;7.232;2022-11-20T03:36:37;4.50;9.70
20174;DHT22;10246;50.620;7.232;2022-11-20T03:39:04;4.60;9.70
20174;DHT22;10246;50.620;7.232;2022-11-20T03:41:35;4.60;9.20
20174;DHT22;10246;50.620;7.232;2022-11-20T03:44:05;4.60;9.20
20174;DHT22;10246;50.620;7.232;2022-11-20T03:46:32;4.60;8.80
20174;DHT22;10246;50.620;7.232;2022-11-20T03:48:59;4.60;9.70
20174;DHT22;10246;50.620;7.232;2022-11-20T03:51:28;4.60;9.20
20174;DHT22;10246;50.620;7.232;2022-11-20T03:53:56;4.60;9.00
20174;DHT22;10246;50.620;7.232;2022-11-20T03:56:25;4.60;9.30
20174;DHT22;10246;50.620;7.232;2022-11-20T03:58:53;4.70;9.80
20174;DHT22;10246;50.620;7.232;2022-11-20T04:01:21;4.70;9.80
20174;DHT22;10246;50.620;7.232;2022-11-20T04:03:48;4.70;9.50
20174;DHT22;10246;50.620;7.232;2022-11-20T04:06:16;4.70;9.80
20174;DHT22;10246;50.620;7.232;2022-11-20T04:08:45;4.80;9.90
20174;DHT22;10246;50.620;7.232;2022-11-20T04:11:13;4.80;9.20
20174;DHT22;10246;50.620;7.232;2022-11-20T04:13:42;4.80;8.90
20174;DHT22;10246;50.620;7.232;2022-11-20T04:16:09;4.80;9.10
20174;DHT22;10246;50.620;7.232;2022-11-20T04:18:36;4.80;8.90
20174;DHT22;10246;50.620;7.232;2022-11-20T04:21:04;4.80;8.60
20174;DHT22;10246;50.620;7.232;2022-11-20T04:23:32;4.80;8.40
20174;DHT22;10246;50.620;7.232;2022-11-20T04:26:02;4.70;8.50
20174;DHT22;10246;50.620;7.232;2022-11-20T04:28:29;4.70;8.70
20174;DHT22;10246;50.620;7.232;2022-11-20T04:31:02;4.70;8.90
20174;DHT22;10246;50.620;7.232;2022-11-20T04:33:29;4.70;9.10
20174;DHT22;10246;50.620;7.232;2022-11-20T04:36:00;4.70;9.50
20174;DHT22;10246;50.620;7.232;2022-11-20T04:38:27;4.70;9.60
20174;DHT22;10246;50.620;7.232;2022-11-20T04:40:56;4.70;9.70
20174;DHT22;10246;50.620;7.232;2022-11-20T04:43:25;4.70;9.60
20174;DHT22;10246;50.620;7.232;2022-11-20T04:45:51;4.70;9.80
20174;DHT22;10246;50.620;7.232;2022-11-20T04:48:18;4.80;9.60
20174;DHT22;10246;50.620;7.232;2022-11-20T04:50:45;4.80;9.90
20174;DHT22;10246;50.620;7.232;2022-11-20T04:53:12;4.70;9.80
20174;DHT22;10246;50.620;7.232;2022-11-20T04:55:39;4.70;9.30
20174;DHT22;10246;50.620;7.232;2022-11-20T04:58:06;4.80;9.60
20174;DHT22;10246;50.620;7.232;2022-11-20T05:00:35;4.70;9.20
20174;DHT22;10246;50.620;7.232;2022-11-20T05:03:01;4.70;9.80
20174;DHT22;10246;50.620;7.232;2022-11-20T05:05:28;4.70;9.80
20174;DHT22;10246;50.620;7.232;2022-11-20T05:07:56;4.70;9.80
20174;DHT22;10246;50.620;7.232;2022-11-20T05:10:23;4.70;9.80
20174;DHT22;10246;50.620;7.232;2022-11-20T05:12:49;4.70;9.80
20174;DHT22;10246;50.620;7.232;2022-11-20T05:15:16;4.70;9.80
20174;DHT22;10246;50.620;7.232;2022-11-20T05:17:48;4.80;10.60
20174;DHT22;10246;50.620;7.232;2022-11-20T05:20:15;4.70;10.50
20174;DHT22;10246;50.620;7.232;2022-11-20T05:22:42;4.70;10.50
20174;DHT22;10246;50.620;7.232;2022-11-20T05:25:09;4.80;10.00
20174;DHT22;10246;50.620;7.232;2022-11-20T05:27:35;4.80;10.40
20174;DHT22;10246;50.620;7.232;2022-11-20T05:30:02;4.80;10.40
20174;DHT22;10246;50.620;7.232;2022-11-20T05:32:29;4.80;10.90
20174;DHT22;10246;50.620;7.232;2022-11-20T05:34:57;4.90;11.00
20174;DHT22;10246;50.620;7.232;2022-11-20T05:37:24;4.90;9.90
20174;DHT22;10246;50.620;7.232;2022-11-20T05:39:51;4.80;9.90
20174;DHT22;10246;50.620;7.232;2022-11-20T05:42:17;4.80;9.90
20174;DHT22;10246;50.620;7.232;2022-11-20T05:44:56;4.90;10.50
20174;DHT22;10246;50.620;7.232;2022-11-20T05:47:23;4.90;10.60
20174;DHT22;10246;50.620;7.232;2022-11-20T05:49:50;4.90;9.90
20174;DHT22;10246;50.620;7.232;2022-11-20T05:52:18;4.80;9.90
20174;DHT22;10246;50.620;7.232;2022-11-20T05:54:45;4.90;9.90
20174;DHT22;10246;50.620;7.232;2022-11-20T05:57:11;4.80;9.90
20174;DHT22;10246;50.620;7.232;2022-11-20T05:59:38;4.80;9.90
20174;DHT22;10246;50.620;7.232;2022-11-20T06:02:05;4.80;9.90
20174;DHT22;10246;50.620;7.232;2022-11-20T06:04:31;4.80;9.90
20174;DHT22;10246;50.620;7.232;2022-11-20T06:06:58;4.80;9.90
20174;DHT22;10246;50.620;7.232;2022-11-20T06:09:26;4.80;10.10
20174;DHT22;10246;50.620;7.232;2022-11-20T06:11:53;4.80;9.90
20174;DHT22;10246;50.620;7.232;2022-11-20T06:14:20;4.80;10.40
20174;DHT22;10246;50.620;7.232;2022-11-20T06:16:46;4.80;10.60
20174;DHT22;10246;50.620;7.232;2022-11-20T06:19:13;4.80;10.70
20174;DHT22;10246;50.620;7.232;2022-11-20T06:21:40;4.90;11.30
20174;DHT22;10246;50.620;7.232;2022-11-20T06:24:09;4.80;10.40
20174;DHT22;10246;50.620;7.232;2022-11-20T06:26:37;4.80;10.10
20174;DHT22;10246;50.620;7.232;2022-11-20T06:29:04;4.80;11.00
20174;DHT22;10246;50.620;7.232;2022-11-20T06:31:30;4.80;10.90
20174;DHT22;10246;50.620;7.232;2022-11-20T06:34:00;4.90;11.60
20174;DHT22;10246;50.620;7.232;2022-11-20T06:36:27;4.90;11.40
20174;DHT22;10246;50.620;7.232;2022-11-20T06:38:54;4.90;11.00
20174;DHT22;10246;50.620;7.232;2022-11-20T06:41:21;5.00;10.80
20174;DHT22;10246;50.620;7.232;2022-11-20T06:43:50;5.00;10.40
20174;DHT22;10246;50.620;7.232;2022-11-20T06:46:18;5.00;10.90
20174;DHT22;10246;50.620;7.232;2022-11-20T06:48:45;5.10;10.00
20174;DHT22;10246;50.620;7.232;2022-11-20T06:51:13;5.00;10.00
20174;DHT22;10246;50.620;7.232;2022-11-20T06:53:40;5.00;10.00
20174;DHT22;10246;50.620;7.232;2022-11-20T06:56:08;5.00;10.10
20174;DHT22;10246;50.620;7.232;2022-11-20T06:58:35;5.00;10.50
20174;DHT22;10246;50.620;7.232;2022-11-20T07:01:06;5.00;10.30
20174;DHT22;10246;50.620;7.232;2022-11-20T07:03:33;5.00;10.00
20174;DHT22;10246;50.620;7.232;2022-11-20T07:06:01;5.00;10.00
20174;DHT22;10246;50.620;7.232;2022-11-20T07:08:30;4.90;9.90
20174;DHT22;10246;50.620;7.232;2022-11-20T07:10:57;4.90;9.90
20174;DHT22;10246;50.620;7.232;2022-11-20T07:13:24;4.90;11.00
20174;DHT22;10246;50.620;7.232;2022-11-20T07:15:51;4.90;11.20
20174;DHT22;10246;50.620;7.232;2022-11-20T07:18:19;4.90;10.70
20174;DHT22;10246;50.620;7.232;2022-11-20T07:20:46;4.90;10.70
20174;DHT22;10246;50.620;7.232;2022-11-20T07:23:13;4.90;11.80
20174;DHT22;10246;50.620;7.232;2022-11-20T07:25:39;5.00;11.80
20174;DHT22;10246;50.620;7.232;2022-11-20T07:28:06;5.10;11.40
20174;DHT22;10246;50.620;7.232;2022-11-20T07:30:33;5.00;11.60
20174;DHT22;10246;50.620;7.232;2022-11-20T07:32:59;5.10;11.80
20174;DHT22;10246;50.620;7.232;2022-11-20T07:35:27;5.20;12.00
20174;DHT22;10246;50.620;7.232;2022-11-20T07:37:55;5.20;11.90
20174;DHT22;10246;50.620;7.232;2022-11-20T07:40:22;5.30;12.10
20174;DHT22;10246;50.620;7.232;2022-11-20T07:42:49;5.30;11.30
20174;DHT22;10246;50.620;7.232;2022-11-20T07:45:16;5.20;10.60
20174;DHT22;10246;50.620;7.232;2022-11-20T07:47:43;5.20;11.00
20174;DHT22;10246;50.620;7.232;2022-11-20T07:50:10;5.20;10.60
20174;DHT22;10246;50.620;7.232;2022-11-20T07:52:38;5.20;11.30
20174;DHT22;10246;50.620;7.232;2022-11-20T07:55:07;5.30;10.70
20174;DHT22;10246;50.620;7.232;2022-11-20T07:57:34;5.30;10.40
20174;DHT22;10246;50.620;7.232;2022-11-20T08:00:00;5.30;10.20
20174;DHT22;10246;50.620;7.232;2022-11-20T08:02:27;5.30;10.20
20174;DHT22;10246;50.620;7.232;2022-11-20T08:04:54;5.20;10.10
20174;DHT22;10246;50.620;7.232;2022-11-20T08:07:20;5.20;10.20
20174;DHT22;10246;50.620;7.232;2022-11-20T08:09:48;5.30;10.20
20174;DHT22;10246;50.620;7.232;2022-11-20T08:12:18;5.30;10.20
20174;DHT22;10246;50.620;7.232;2022-11-20T08:15:04;5.30;10.20
20174;DHT22;10246;50.620;7.232;2022-11-20T08:17:31;5.30;10.20
20174;DHT22;10246;50.620;7.232;2022-11-20T08:19:58;5.30;10.20
20174;DHT22;10246;50.620;7.232;2022-11-20T08:22:24;5.30;10.60
20174;DHT22;10246;50.620;7.232;2022-11-20T08:24:52;5.40;10.20
20174;DHT22;10246;50.620;7.232;2022-11-20T08:27:20;5.40;10.20
20174;DHT22;10246;50.620;7.232;2022-11-20T08:29:47;5.40;10.30
20174;DHT22;10246;50.620;7.232;2022-11-20T08:32:14;5.40;10.20
20174;DHT22;10246;50.620;7.232;2022-11-20T08:34:40;5.40;10.30
20174;DHT22;10246;50.620;7.232;2022-11-20T08:37:07;5.40;9.90
20174;DHT22;10246;50.620;7.232;2022-11-20T08:39:34;5.40;9.70
20174;DHT22;10246;50.620;7.232;2022-11-20T08:42:06;5.40;9.70
20174;DHT22;10246;50.620;7.232;2022-11-20T08:44:32;5.40;10.20
20174;DHT22;10246;50.620;7.232;2022-11-20T08:47:00;5.40;10.20
20174;DHT22;10246;50.620;7.232;2022-11-20T08:49:27;5.40;10.20
20174;DHT22;10246;50.620;7.232;2022-11-20T08:51:55;5.50;10.30
20174;DHT22;10246;50.620;7.232;2022-11-20T08:54:21;5.50;10.30
20174;DHT22;10246;50.620;7.232;2022-11-20T08:56:48;5.60;9.90
20174;DHT22;10246;50.620;7.232;2022-11-20T08:59:16;5.60;9.40
20174;DHT22;10246;50.620;7.232;2022-11-20T09:01:43;5.60;9.20
20174;DHT22;10246;50.620;7.232;2022-11-20T09:04:10;5.60;9.10
20174;DHT22;10246;50.620;7.232;2022-11-20T09:06:37;5.60;9.20
20174;DHT22;10246;50.620;7.232;2022-11-20T09:09:03;5.50;8.90
20174;DHT22;10246;50.620;7.232;2022-11-20T09:11:31;5.50;9.00
20174;DHT22;10246;50.620;7.232;2022-11-20T09:13:58;5.60;9.20
20174;DHT22;10246;50.620;7.232;2022-11-20T09:16:26;5.60;9.40
20174;DHT22;10246;50.620;7.232;2022-11-20T09:18:53;5.60;9.60
20174;DHT22;10246;50.620;7.232;2022-11-20T09:21:20;5.60;9.70
20174;DHT22;10246;50.620;7.232;2022-11-20T09:23:48;5.70;9.00
20174;DHT22;10246;50.620;7.232;2022-11-20T09:26:15;5.70;8.70
20174;DHT22;10246;50.620;7.232;2022-11-20T09:28:41;5.80;8.80
20174;DHT22;10246;50.620;7.232;2022-11-20T09:31:21;5.80;8.80
20174;DHT22;10246;50.620;7.232;2022-11-20T09:33:50;5.90;8.70
20174;DHT22;10246;50.620;7.232;2022-11-20T09:36:17;5.90;9.00
20174;DHT22;10246;50.620;7.232;2022-11-20T09:38:44;6.00;7.70
20174;DHT22;10246;50.620;7.232;2022-11-20T09:41:27;6.00;7.00
20174;DHT22;10246;50.620;7.232;2022-11-20T09:44:00;6.00;6.10
20174;DHT22;10246;50.620;7.232;2022-11-20T09:46:29;6.00;6.80
20174;DHT22;10246;50.620;7.232;2022-11-20T09:49:15;6.10;6.80
20174;DHT22;10246;50.620;7.232;2022-11-20T09:51:49;6.10;5.90
20174;DHT22;10246;50.620;7.232;2022-11-20T09:54:21;6.10;4.60
20174;DHT22;10246;50.620;7.232;2022-11-20T09:56:53;6.20;5.40
20174;DHT22;10246;50.620;7.232;2022-11-20T09:59:35;6.20;5.90
20174;DHT22;10246;50.620;7.232;2022-11-20T10:02:12;6.30;5.00
20174;DHT22;10246;50.620;7.232;2022-11-20T10:04:47;6.30;4.60
20174;DHT22;10246;50.620;7.232;2022-11-20T10:07:19;6.40;4.70
20174;DHT22;10246;50.620;7.232;2022-11-20T10:09:51;6.40;4.40
20174;DHT22;10246;50.620;7.232;2022-11-20T10:12:27;6.50;4.20
20174;DHT22;10246;50.620;7.232;2022-11-20T10:15:12;6.60;4.30
20174;DHT22;10246;50.620;7.232;2022-11-20T10:17:54;6.70;3.70
20174;DHT22;10246;50.620;7.232;2022-11-20T10:20:29;6.70;3.50
20174;DHT22;10246;50.620;7.232;2022-11-20T10:23:20;6.70;2.90
20174;DHT22;10246;50.620;7.232;2022-11-20T10:25:55;6.70;1.90
20174;DHT22;10246;50.620;7.232;2022-11-20T10:28:43;6.70;1.60
20174;DHT22;10246;50.620;7.232;2022-11-20T10:31:21;6.80;1.90
20174;DHT22;10246;50.620;7.232;2022-11-20T10:33:52;6.70;2.20
20174;DHT22;10246;50.620;7.232;2022-11-20T10:36:26;6.70;1.00
20174;DHT22;10246;50.620;7.232;2022-11-20T10:38:58;6.70;2.20
20174;DHT22;10246;50.620;7.232;2022-11-20T10:41:30;6.70;2.60
20174;DHT22;10246;50.620;7.232;2022-11-20T10:44:03;6.80;3.20
20174;DHT22;10246;50.620;7.232;2022-11-20T10:46:37;6.80;2.60
20174;DHT22;10246;50.620;7.232;2022-11-20T10:49:11;6.70;2.60
20174;DHT22;10246;50.620;7.232;2022-11-20T10:51:52;6.70;3.30
20174;DHT22;10246;50.620;7.232;2022-11-20T10:54:30;6.80;3.20
20174;DHT22;10246;50.620;7.232;2022-11-20T10:57:03;6.80;3.40
20174;DHT22;10246;50.620;7.232;2022-11-20T10:59:55;6.80;3.00
20174;DHT22;10246;50.620;7.232;2022-11-20T11:02:33;6.80;2.60
20174;DHT22;10246;50.620;7.232;2022-11-20T11:05:10;6.80;3.10
20174;DHT22;10246;50.620;7.232;2022-11-20T11:07:40;6.80;3.60
20174;DHT22;10246;50.620;7.232;2022-11-20T11:10:15;6.80;3.60
20174;DHT22;10246;50.620;7.232;2022-11-20T11:12:45;6.90;4.30
20174;DHT22;10246;50.620;7.232;2022-11-20T11:15:14;6.90;3.30
20174;DHT22;10246;50.620;7.232;2022-11-20T11:17:50;6.90;3.00
20174;DHT22;10246;50.620;7.232;2022-11-20T11:20:18;6.90;3.20
20174;DHT22;10246;50.620;7.232;2022-11-20T11:22:49;6.80;3.60
20174;DHT22;10246;50.620;7.232;2022-11-20T11:25:21;6.80;3.30
20174;DHT22;10246;50.620;7.232;2022-11-20T11:27:48;6.90;3.90
20174;DHT22;10246;50.620;7.232;2022-11-20T11:30:17;6.80;3.30
20174;DHT22;10246;50.620;7.232;2022-11-20T11:32:44;6.80;3.60
20174;DHT22;10246;50.620;7.232;2022-11-20T11:35:21;6.90;3.60
20174;DHT22;10246;50.620;7.232;2022-11-20T11:37:50;6.90;3.70
20174;DHT22;10246;50.620;7.232;2022-11-20T11:40:21;7.00;3.50
20174;DHT22;10246;50.620;7.232;2022-11-20T11:42:54;7.10;4.60
20174;DHT22;10246;50.620;7.232;2022-11-20T11:45:22;7.10;3.70
20174;DHT22;10246;50.620;7.232;2022-11-20T11:47:48;7.20;3.60
20174;DHT22;10246;50.620;7.232;2022-11-20T11:50:19;7.20;3.00
20174;DHT22;10246;50.620;7.232;2022-11-20T11:53:03;7.20;2.70
20174;DHT22;10246;50.620;7.232;2022-11-20T11:55:36;7.20;2.80
20174;DHT22;10246;50.620;7.232;2022-11-20T11:58:13;7.20;3.30
20174;DHT22;10246;50.620;7.232;2022-11-20T12:00:47;7.20;3.70
20174;DHT22;10246;50.620;7.232;2022-11-20T12:03:19;7.30;3.70
20174;DHT22;10246;50.620;7.232;2022-11-20T12:05:51;7.30;3.70
20174;DHT22;10246;50.620;7.232;2022-11-20T12:08:24;7.40;3.70
20174;DHT22;10246;50.620;7.232;2022-11-20T12:10:56;7.40;3.40
20174;DHT22;10246;50.620;7.232;2022-11-20T12:13:35;7.40;2.80
20174;DHT22;10246;50.620;7.232;2022-11-20T12:16:08;7.40;3.40
20174;DHT22;10246;50.620;7.232;2022-11-20T12:18:38;7.50;3.50
20174;DHT22;10246;50.620;7.232;2022-11-20T12:21:16;7.40;3.20
20174;DHT22;10246;50.620;7.232;2022-11-20T12:26:49;7.50;3.50
20174;DHT22;10246;50.620;7.232;2022-11-20T12:29:29;7.50;3.40
20174;DHT22;10246;50.620;7.232;2022-11-20T12:35:29;7.60;3.80
20174;DHT22;10246;50.620;7.232;2022-11-20T12:38:26;7.60;3.60
20174;DHT22;10246;50.620;7.232;2022-11-20T12:41:02;7.60;3.30
20174;DHT22;10246;50.620;7.232;2022-11-20T12:43:37;7.70;3.60
20174;DHT22;10246;50.620;7.232;2022-11-20T12:46:33;7.70;3.40
20174;DHT22;10246;50.620;7.232;2022-11-20T12:49:20;7.80;3.60
20174;DHT22;10246;50.620;7.232;2022-11-20T12:52:02;7.80;3.60
20174;DHT22;10246;50.620;7.232;2022-11-20T12:54:43;7.80;4.00
20174;DHT22;10246;50.620;7.232;2022-11-20T12:57:20;7.80;4.40
20174;DHT22;10246;50.620;7.232;2022-11-20T12:59:59;7.80;4.30
20174;DHT22;10246;50.620;7.232;2022-11-20T13:02:35;7.80;4.20
20174;DHT22;10246;50.620;7.232;2022-11-20T13:05:19;7.80;4.70
20174;DHT22;10246;50.620;7.232;2022-11-20T13:07:47;7.70;4.60
20174;DHT22;10246;50.620;7.232;2022-11-20T13:10:21;7.70;4.80
20174;DHT22;10246;50.620;7.232;2022-11-20T13:12:56;7.80;4.90
20174;DHT22;10246;50.620;7.232;2022-11-20T13:15:36;7.80;5.80
20174;DHT22;10246;50.620;7.232;2022-11-20T13:18:09;7.90;5.30
20174;DHT22;10246;50.620;7.232;2022-11-20T13:20:41;7.90;4.90
20174;DHT22;10246;50.620;7.232;2022-11-20T13:23:08;7.90;4.90
20174;DHT22;10246;50.620;7.232;2022-11-20T13:25:36;7.90;4.80
20174;DHT22;10246;50.620;7.232;2022-11-20T13:28:27;8.00;4.90
20174;DHT22;10246;50.620;7.232;2022-11-20T13:30:55;8.00;4.50
20174;DHT22;10246;50.620;7.232;2022-11-20T13:33:29;8.10;4.60
20174;DHT22;10246;50.620;7.232;2022-11-20T13:35:58;8.10;4.80
20174;DHT22;10246;50.620;7.232;2022-11-20T13:38:25;8.00;4.80
20174;DHT22;10246;50.620;7.232;2022-11-20T13:40:54;8.00;5.20
20174;DHT22;10246;50.620;7.232;2022-11-20T13:43:28;8.00;5.30
20174;DHT22;10246;50.620;7.232;2022-11-20T13:46:01;8.00;6.20
20174;DHT22;10246;50.620;7.232;2022-11-20T13:48:31;8.00;5.40
20174;DHT22;10246;50.620;7.232;2022-11-20T13:51:12;8.00;5.90
20174;DHT22;10246;50.620;7.232;2022-11-20T13:54:05;8.00;5.60
20174;DHT22;10246;50.620;7.232;2022-11-20T13:56:47;8.00;5.90
20174;DHT22;10246;50.620;7.232;2022-11-20T13:59:29;8.00;6.10
20174;DHT22;10246;50.620;7.232;2022-11-20T14:02:00;8.00;6.40
20174;DHT22;10246;50.620;7.232;2022-11-20T14:04:30;8.00;6.40
20174;DHT22;10246;50.620;7.232;2022-11-20T14:06:59;7.90;6.60
20174;DHT22;10246;50.620;7.232;2022-11-20T14:09:28;7.90;6.60
20174;DHT22;10246;50.620;7.232;2022-11-20T14:11:55;7.90;6.70
20174;DHT22;10246;50.620;7.232;2022-11-20T14:14:25;7.90;7.00
20174;DHT22;10246;50.620;7.232;2022-11-20T14:16:52;7.90;7.10
20174;DHT22;10246;50.620;7.232;2022-11-20T14:19:28;7.90;7.20
20174;DHT22;10246;50.620;7.232;2022-11-20T14:22:08;7.90;7.50
20174;DHT22;10246;50.620;7.232;2022-11-20T14:24:35;7.90;7.50
20174;DHT22;10246;50.620;7.232;2022-11-20T14:27:02;7.90;7.40
20174;DHT22;10246;50.620;7.232;2022-11-20T14:29:34;7.90;7.50
20174;DHT22;10246;50.620;7.232;2022-11-20T14:32:03;7.90;7.60
20174;DHT22;10246;50.620;7.232;2022-11-20T14:34:31;7.90;7.50
20174;DHT22;10246;50.620;7.232;2022-11-20T14:37:00;8.00;7.60
20174;DHT22;10246;50.620;7.232;2022-11-20T14:39:30;8.00;7.80
20174;DHT22;10246;50.620;7.232;2022-11-20T14:41:57;8.00;7.70
20174;DHT22;10246;50.620;7.232;2022-11-20T14:44:27;8.00;7.70
20174;DHT22;10246;50.620;7.232;2022-11-20T14:46:56;7.90;7.80
20174;DHT22;10246;50.620;7.232;2022-11-20T14:49:24;7.90;8.00
20174;DHT22;10246;50.620;7.232;2022-11-20T14:51:59;7.90;8.20
20174;DHT22;10246;50.620;7.232;2022-11-20T14:54:26;7.90;8.40
20174;DHT22;10246;50.620;7.232;2022-11-20T14:56:55;7.90;8.40
20174;DHT22;10246;50.620;7.232;2022-11-20T14:59:23;7.90;8.40
20174;DHT22;10246;50.620;7.232;2022-11-20T15:01:57;7.90;8.50
20174;DHT22;10246;50.620;7.232;2022-11-20T15:04:25;7.90;8.40
20174;DHT22;10246;50.620;7.232;2022-11-20T15:06:53;7.90;8.70
20174;DHT22;10246;50.620;7.232;2022-11-20T15:09:21;7.90;8.70
20174;DHT22;10246;50.620;7.232;2022-11-20T15:11:54;7.80;8.90
20174;DHT22;10246;50.620;7.232;2022-11-20T15:14:22;7.80;9.70
20174;DHT22;10246;50.620;7.232;2022-11-20T15:16:50;7.80;10.10
20174;DHT22;10246;50.620;7.232;2022-11-20T15:19:21;7.80;10.40
20174;DHT22;10246;50.620;7.232;2022-11-20T15:21:49;7.90;10.30
20174;DHT22;10246;50.620;7.232;2022-11-20T15:24:16;7.90;10.30
20174;DHT22;10246;50.620;7.232;2022-11-20T15:26:43;7.90;10.90
20174;DHT22;10246;50.620;7.232;2022-11-20T15:29:11;7.80;11.10
20174;DHT22;10246;50.620;7.232;2022-11-20T15:31:38;7.80;11.50
20174;DHT22;10246;50.620;7.232;2022-11-20T15:34:09;7.80;11.70
20174;DHT22;10246;50.620;7.232;2022-11-20T15:36:38;7.80;12.00
20174;DHT22;10246;50.620;7.232;2022-11-20T15:39:05;7.80;12.80
20174;DHT22;10246;50.620;7.232;2022-11-20T15:41:33;7.80;13.00
20174;DHT22;10246;50.620;7.232;2022-11-20T15:44:02;7.90;12.70
20174;DHT22;10246;50.620;7.232;2022-11-20T15:46:31;7.90;13.50
20174;DHT22;10246;50.620;7.232;2022-11-20T15:49:03;7.90;13.50
20174;DHT22;10246;50.620;7.232;2022-11-20T15:51:31;7.80;13.60
20174;DHT22;10246;50.620;7.232;2022-11-20T15:54:03;7.80;13.50
20174;DHT22;10246;50.620;7.232;2022-11-20T15:56:30;7.80;14.20
20174;DHT22;10246;50.620;7.232;2022-11-20T15:58:58;7.90;13.90
20174;DHT22;10246;50.620;7.232;2022-11-20T16:01:25;7.90;14.00
20174;DHT22;10246;50.620;7.232;2022-11-20T16:03:52;7.80;14.10
20174;DHT22;10246;50.620;7.232;2022-11-20T16:06:26;7.80;13.90
20174;DHT22;10246;50.620;7.232;2022-11-20T16:08:53;7.80;14.10
20174;DHT22;10246;50.620;7.232;2022-11-20T16:11:21;7.80;14.30
20174;DHT22;10246;50.620;7.232;2022-11-20T16:13:48;7.70;14.70
20174;DHT22;10246;50.620;7.232;2022-11-20T16:16:47;7.70;14.80
20174;DHT22;10246;50.620;7.232;2022-11-20T16:19:14;7.70;15.10
20174;DHT22;10246;50.620;7.232;2022-11-20T16:21:41;7.70;15.00